createdAt,value
2022-12-03T00:02:31.213Z,71.23
2022-12-03T00:05:34.180Z,71.25
2022-12-03T00:08:36.801Z,63.00
2022-12-03T00:11:39.763Z,72.88
2022-12-03T00:14:52.290Z,68.95
2022-12-03T00:17:55.147Z,62.28
2022-12-03T00:20:57.991Z,70.35
2022-12-03T00:24:00.763Z,73.93
2022-12-03T00:27:03.727Z,68.45
2022-12-03T00:30:08.044Z,65.47
2022-12-03T00:33:10.759Z,69.83
2022-12-03T00:36:13.451Z,63.55
2022-12-03T00:39:16.321Z,62.92
2022-12-03T00:42:19.125Z,66.10
2022-12-03T00:45:21.811Z,59.65
2022-12-03T00:48:24.543Z,62.20
2022-12-03T00:51:27.777Z,56.10
2022-12-03T00:54:32.314Z,54.63
2022-12-03T00:57:35.175Z,54.75
2022-12-03T01:00:38.114Z,49.03
2022-12-03T01:03:40.715Z,54.03
2022-12-03T01:06:43.972Z,68.85
2022-12-03T01:09:46.478Z,58.63
2022-12-03T01:12:49.241Z,54.13
2022-12-03T01:15:51.874Z,46.08
2022-12-03T01:18:54.966Z,53.08
2022-12-03T01:21:57.537Z,56.85
2022-12-03T01:25:00.371Z,57.73
2022-12-03T01:28:03.008Z,55.38
2022-12-03T01:31:24.281Z,53.88
2022-12-03T01:34:26.940Z,60.57
2022-12-03T01:37:29.956Z,54.60
2022-12-03T01:40:32.720Z,50.40
2022-12-03T01:43:36.016Z,50.53
2022-12-03T01:46:40.747Z,45.03
2022-12-03T01:50:01.772Z,48.72
2022-12-03T01:53:05.077Z,42.58
2022-12-03T01:56:09.591Z,42.73
2022-12-03T01:59:18.509Z,47.25
2022-12-03T02:02:26.219Z,43.85
2022-12-03T02:05:31.273Z,40.37
2022-12-03T02:08:36.789Z,49.00
2022-12-03T02:11:44.226Z,45.08
2022-12-03T02:14:47.871Z,37.67
2022-12-03T02:17:53.267Z,43.20
2022-12-03T02:21:19.224Z,41.40
2022-12-03T02:24:44.718Z,39.25
2022-12-03T02:27:48.647Z,37.43
2022-12-03T02:30:51.554Z,41.83
2022-12-03T02:33:54.373Z,46.75
2022-12-03T02:36:56.899Z,42.47
2022-12-03T02:40:07.046Z,42.58
2022-12-03T02:43:10.635Z,41.10
2022-12-03T02:46:13.606Z,41.17
2022-12-03T02:49:16.310Z,42.40
2022-12-03T02:52:19.700Z,40.30
2022-12-03T02:55:23.487Z,36.90
2022-12-03T02:58:29.252Z,37.93
2022-12-03T03:01:32.711Z,38.58
2022-12-03T03:04:35.779Z,43.05
2022-12-03T03:07:39.656Z,41.13
2022-12-03T03:10:43.669Z,36.53
2022-12-03T03:13:46.413Z,37.00
2022-12-03T03:16:56.321Z,37.40
2022-12-03T03:19:59.231Z,39.42
2022-12-03T03:23:20.599Z,35.90
2022-12-03T03:26:23.264Z,37.13
2022-12-03T03:29:26.412Z,34.67
2022-12-03T03:32:30.476Z,37.15
2022-12-03T03:35:33.691Z,33.53
2022-12-03T03:38:37.053Z,38.97
2022-12-03T03:41:44.827Z,32.25
2022-12-03T03:44:48.216Z,37.83
2022-12-03T03:47:51.122Z,40.47
2022-12-03T03:50:53.962Z,34.95
2022-12-03T03:53:56.858Z,41.75
2022-12-03T03:56:59.986Z,37.70
2022-12-03T04:00:03.025Z,31.33
2022-12-03T04:03:10.098Z,37.47
2022-12-03T04:06:13.106Z,38.17
2022-12-03T04:09:15.583Z,34.57
2022-12-03T04:12:37.071Z,31.45
2022-12-03T04:15:39.569Z,37.25
2022-12-03T04:18:45.481Z,36.38
2022-12-03T04:22:26.488Z,33.83
2022-12-03T04:25:47.923Z,31.25
2022-12-03T04:28:50.781Z,35.80
2022-12-03T04:32:12.408Z,38.50
2022-12-03T04:35:34.040Z,33.25
2022-12-03T04:38:36.975Z,32.35
2022-12-03T04:41:39.781Z,35.80
2022-12-03T04:44:42.826Z,38.33
2022-12-03T04:47:45.542Z,40.15
2022-12-03T04:50:48.666Z,35.35
2022-12-03T04:53:51.343Z,34.60
2022-12-03T04:56:54.140Z,35.47
2022-12-03T04:59:57.043Z,37.40
2022-12-03T05:02:59.873Z,31.80
2022-12-03T05:06:02.662Z,30.95
2022-12-03T05:09:05.579Z,36.72
2022-12-03T05:12:07.978Z,34.57
2022-12-03T05:15:11.762Z,36.65
2022-12-03T05:18:14.237Z,31.48
2022-12-03T05:21:17.293Z,39.22
2022-12-03T05:24:19.782Z,34.63
2022-12-03T05:27:24.185Z,43.08
2022-12-03T05:30:26.983Z,44.40
2022-12-03T05:33:29.907Z,47.30
2022-12-03T05:36:32.337Z,42.65
2022-12-03T05:39:35.158Z,37.78
2022-12-03T05:42:56.518Z,44.30
2022-12-03T05:45:59.642Z,41.08
2022-12-03T05:49:02.290Z,42.67
2022-12-03T05:52:05.544Z,42.38
2022-12-03T05:55:08.791Z,47.88
2022-12-03T05:58:12.427Z,40.97
2022-12-03T06:01:15.100Z,39.38
2022-12-03T06:04:17.872Z,40.70
2022-12-03T06:07:20.310Z,40.33
2022-12-03T06:10:25.456Z,55.97
2022-12-03T06:13:27.835Z,39.10
2022-12-03T06:16:30.904Z,38.50
2022-12-03T06:19:33.847Z,45.58
2022-12-03T06:22:36.858Z,48.92
2022-12-03T06:25:39.611Z,50.10
2022-12-03T06:28:46.607Z,47.40
2022-12-03T06:31:49.300Z,37.40
2022-12-03T06:34:52.354Z,41.17
2022-12-03T06:37:55.297Z,42.67
2022-12-03T06:40:58.363Z,40.50
2022-12-03T06:44:00.825Z,50.87
2022-12-03T06:47:04.079Z,53.00
2022-12-03T06:50:08.424Z,73.45
2022-12-03T06:53:11.315Z,72.60
2022-12-03T06:56:14.127Z,74.50
2022-12-03T06:59:16.783Z,79.88
2022-12-03T07:02:20.576Z,83.88
2022-12-03T07:05:23.194Z,73.57
2022-12-03T07:08:25.914Z,78.03
2022-12-03T07:11:31.818Z,67.93
2022-12-03T07:14:34.279Z,84.27
2022-12-03T07:17:36.908Z,82.65
2022-12-03T07:20:39.512Z,95.78
2022-12-03T07:23:42.295Z,106.03
2022-12-03T07:26:44.985Z,98.32
2022-12-03T07:29:47.687Z,105.55
2022-12-03T07:32:50.395Z,114.15
2022-12-03T07:35:53.183Z,110.00
2022-12-03T07:38:55.801Z,92.85
2022-12-03T07:41:58.935Z,93.18
2022-12-03T07:45:01.439Z,81.70
2022-12-03T07:48:04.317Z,75.30
2022-12-03T07:51:06.900Z,69.00
2022-12-03T07:54:09.909Z,64.70
2022-12-03T07:57:12.478Z,61.78
2022-12-03T08:00:15.811Z,55.17
2022-12-03T08:03:18.577Z,54.10
2022-12-03T08:06:21.812Z,63.70
2022-12-03T08:09:24.599Z,66.47
2022-12-03T08:12:40.514Z,60.13
2022-12-03T08:15:43.430Z,64.90
2022-12-03T08:18:47.505Z,67.28
2022-12-03T08:21:50.261Z,66.00
2022-12-03T08:24:54.418Z,68.28
2022-12-03T08:28:16.357Z,70.35
2022-12-03T08:31:32.908Z,68.63
2022-12-03T08:34:42.311Z,70.43
2022-12-03T08:37:45.011Z,63.00
2022-12-03T08:40:50.064Z,63.33
2022-12-03T08:43:52.783Z,45.65
2022-12-03T08:47:19.816Z,48.20
2022-12-03T08:50:32.008Z,49.88
2022-12-03T08:53:41.601Z,43.20
2022-12-03T08:56:45.119Z,38.75
2022-12-03T08:59:47.950Z,31.27
2022-12-03T09:02:53.072Z,35.42
2022-12-03T09:05:55.756Z,44.72
2022-12-03T09:09:01.186Z,33.23
2022-12-03T09:12:07.882Z,32.10
2022-12-03T09:15:11.163Z,34.05
2022-12-03T09:18:14.658Z,36.63
2022-12-03T09:21:17.700Z,40.30
2022-12-03T09:24:20.637Z,39.08
2022-12-03T09:27:23.680Z,24.15
2022-12-03T09:30:26.132Z,29.35
2022-12-03T09:33:29.612Z,26.13
2022-12-03T09:36:32.428Z,26.48
2022-12-03T09:39:35.619Z,26.60
2022-12-03T09:42:38.454Z,20.13
2022-12-03T09:45:41.580Z,19.30
2022-12-03T09:48:44.143Z,33.23
2022-12-03T09:51:46.944Z,20.80
2022-12-03T09:54:49.847Z,23.05
2022-12-03T09:57:54.300Z,21.95
2022-12-03T10:00:57.339Z,28.83
2022-12-03T10:04:00.097Z,28.98
2022-12-03T10:07:02.767Z,24.23
2022-12-03T10:10:08.017Z,23.97
2022-12-03T10:13:26.219Z,23.63
2022-12-03T10:16:30.610Z,21.45
2022-12-03T10:19:35.806Z,24.47
2022-12-03T10:22:38.785Z,23.23
2022-12-03T10:26:04.164Z,20.55
2022-12-03T10:29:34.915Z,21.65
2022-12-03T10:32:49.055Z,20.30
2022-12-03T10:35:51.665Z,22.88
2022-12-03T10:39:15.269Z,24.05
2022-12-03T10:42:19.451Z,22.50
2022-12-03T10:45:23.147Z,21.52
2022-12-03T10:48:27.685Z,25.02
2022-12-03T10:51:30.982Z,22.87
2022-12-03T10:54:35.574Z,25.60
2022-12-03T10:57:42.376Z,25.92
2022-12-03T11:00:48.547Z,22.20
2022-12-03T11:03:52.198Z,27.33
2022-12-03T11:06:55.623Z,20.55
2022-12-03T11:10:00.193Z,23.17
2022-12-03T11:13:44.408Z,23.87
2022-12-03T11:16:46.756Z,21.30
2022-12-03T11:19:50.107Z,18.98
2022-12-03T11:22:54.025Z,19.83
2022-12-03T11:25:56.699Z,19.13
2022-12-03T11:28:59.827Z,19.80
2022-12-03T11:32:02.469Z,21.70
2022-12-03T11:35:23.161Z,18.77
2022-12-03T11:38:55.540Z,21.83
2022-12-03T11:42:25.943Z,20.13
2022-12-03T11:45:32.309Z,20.40
2022-12-03T11:48:44.298Z,21.55
2022-12-03T11:51:47.251Z,19.90
2022-12-03T11:54:53.949Z,18.63
2022-12-03T11:58:05.299Z,17.15
2022-12-03T12:01:08.521Z,19.48
2022-12-03T12:04:35.223Z,18.92
2022-12-03T12:07:37.960Z,17.35
2022-12-03T12:10:49.101Z,32.53
2022-12-03T12:13:54.686Z,23.05
2022-12-03T12:16:58.667Z,26.63
2022-12-03T12:20:28.035Z,22.30
2022-12-03T12:23:30.577Z,36.50
2022-12-03T12:26:33.059Z,30.07
2022-12-03T12:29:37.072Z,20.77
2022-12-03T12:33:11.207Z,21.13
2022-12-03T12:36:14.145Z,20.88
2022-12-03T12:39:16.627Z,17.27
2022-12-03T12:42:38.602Z,24.90
2022-12-03T12:45:43.297Z,25.48
2022-12-03T12:48:45.883Z,21.90
2022-12-03T12:51:49.647Z,22.48
2022-12-03T12:54:52.281Z,18.08
2022-12-03T12:58:11.435Z,21.43
2022-12-03T13:01:32.438Z,16.55
2022-12-03T13:04:40.011Z,18.83
2022-12-03T13:07:44.208Z,16.63
2022-12-03T13:10:47.741Z,20.15
2022-12-03T13:13:51.050Z,18.92
2022-12-03T13:16:56.667Z,30.08
2022-12-03T13:20:07.582Z,19.63
2022-12-03T13:23:28.026Z,22.17
2022-12-03T13:26:40.076Z,29.95
2022-12-03T13:29:43.162Z,22.60
2022-12-03T13:32:45.642Z,25.52
2022-12-03T13:35:48.326Z,26.10
2022-12-03T13:38:51.153Z,23.30
2022-12-03T13:42:13.551Z,24.55
2022-12-03T13:45:19.045Z,30.00
2022-12-03T13:48:23.851Z,38.20
2022-12-03T13:51:29.829Z,37.70
2022-12-03T13:54:32.912Z,29.83
2022-12-03T13:57:35.417Z,31.52
2022-12-03T14:00:39.284Z,33.10
2022-12-03T14:03:41.961Z,31.73
2022-12-03T14:06:44.625Z,31.17
2022-12-03T14:09:47.135Z,27.48
2022-12-03T14:12:50.163Z,34.83
2022-12-03T14:15:52.625Z,39.67
2022-12-03T14:18:55.614Z,33.92
2022-12-03T14:22:00.232Z,41.90
2022-12-03T14:25:02.878Z,65.63
2022-12-03T14:28:08.705Z,69.45
2022-12-03T14:31:11.709Z,64.83
2022-12-03T14:34:14.306Z,61.58
2022-12-03T14:37:17.789Z,75.03
2022-12-03T14:40:22.006Z,76.50
2022-12-03T14:43:25.210Z,80.50
2022-12-03T14:46:27.844Z,73.32
2022-12-03T14:49:31.759Z,77.93
2022-12-03T14:52:36.559Z,77.03
2022-12-03T14:55:39.199Z,70.72
2022-12-03T14:58:41.869Z,78.47
2022-12-03T15:01:44.705Z,85.50
2022-12-03T15:04:47.347Z,93.03
2022-12-03T15:07:50.487Z,82.55
2022-12-03T15:10:52.947Z,87.20
2022-12-03T15:13:55.839Z,121.63
2022-12-03T15:16:58.767Z,121.97
2022-12-03T15:20:01.855Z,116.35
2022-12-03T15:23:06.304Z,116.73
2022-12-03T15:26:10.719Z,117.93
2022-12-03T15:29:13.524Z,93.22
2022-12-03T15:32:16.363Z,80.40
2022-12-03T15:35:19.036Z,91.63
2022-12-03T15:38:21.752Z,76.57
2022-12-03T15:41:28.956Z,61.33
2022-12-03T15:44:31.935Z,51.67
2022-12-03T15:47:34.434Z,54.90
2022-12-03T15:50:40.304Z,112.15
2022-12-03T15:53:43.170Z,124.83
2022-12-03T15:56:46.234Z,116.38
2022-12-03T15:59:49.075Z,60.05
2022-12-03T16:02:53.055Z,60.53
2022-12-03T16:05:56.030Z,72.43
2022-12-03T16:08:59.106Z,93.88
2022-12-03T16:12:01.921Z,101.55
2022-12-03T16:15:05.335Z,83.75
2022-12-03T16:18:08.113Z,80.30
2022-12-03T16:21:11.063Z,103.80
2022-12-03T16:24:13.651Z,86.60
2022-12-03T16:27:16.390Z,82.97
2022-12-03T16:30:19.218Z,72.07
2022-12-03T16:33:27.209Z,77.20
2022-12-03T16:36:30.589Z,115.75
2022-12-03T16:39:33.396Z,98.15
2022-12-03T16:42:37.348Z,99.20
2022-12-03T16:45:46.479Z,87.25
2022-12-03T16:48:49.543Z,102.00
2022-12-03T16:51:52.797Z,97.55
2022-12-03T16:54:55.434Z,83.80
2022-12-03T16:57:58.326Z,94.40
2022-12-03T17:01:00.966Z,91.88
2022-12-03T17:04:04.950Z,80.93
2022-12-03T17:07:07.625Z,76.32
2022-12-03T17:10:11.419Z,98.65
2022-12-03T17:13:15.359Z,91.72
2022-12-03T17:16:18.553Z,72.30
2022-12-03T17:19:21.142Z,82.40
2022-12-03T17:22:23.967Z,79.38
2022-12-03T17:25:27.339Z,83.80
2022-12-03T17:28:30.515Z,86.50
2022-12-03T17:31:38.386Z,82.43
2022-12-03T17:34:44.474Z,84.03
2022-12-03T17:37:47.184Z,89.03
2022-12-03T17:40:50.499Z,114.18
2022-12-03T17:43:53.915Z,110.05
2022-12-03T17:46:57.047Z,121.82
2022-12-03T17:49:59.822Z,116.13
2022-12-03T17:53:05.542Z,115.22
2022-12-03T17:56:08.136Z,121.17
2022-12-03T17:59:12.013Z,123.32
2022-12-03T18:02:15.257Z,121.18
2022-12-03T18:05:18.599Z,110.43
2022-12-03T18:08:21.303Z,107.40
2022-12-03T18:11:24.449Z,99.57
2022-12-03T18:14:27.236Z,105.45
2022-12-03T18:17:30.360Z,97.40
2022-12-03T18:20:33.108Z,97.95
2022-12-03T18:23:36.208Z,97.68
2022-12-03T18:26:38.945Z,99.87
2022-12-03T18:29:41.651Z,109.45
2022-12-03T18:32:44.586Z,125.70
2022-12-03T18:35:47.691Z,154.23
2022-12-03T18:38:53.058Z,150.38
2022-12-03T18:41:56.239Z,151.65
2022-12-03T18:44:59.727Z,135.85
2022-12-03T18:48:02.939Z,135.50
2022-12-03T18:51:17.808Z,138.60
2022-12-03T18:54:20.959Z,135.57
2022-12-03T18:57:23.739Z,122.33
2022-12-03T19:00:27.081Z,109.60
2022-12-03T19:03:30.777Z,93.70
2022-12-03T19:06:33.473Z,88.50
2022-12-03T19:09:36.324Z,82.30
2022-12-03T19:12:39.662Z,87.85
2022-12-03T19:15:42.527Z,76.00
2022-12-03T19:18:46.252Z,77.20
2022-12-03T19:21:48.790Z,68.65
2022-12-03T19:24:52.466Z,70.82
2022-12-03T19:27:57.026Z,74.97
2022-12-03T19:31:02.914Z,75.03
2022-12-03T19:34:05.900Z,76.80
2022-12-03T19:37:08.840Z,84.37
2022-12-03T19:40:12.064Z,87.25
2022-12-03T19:43:15.063Z,99.78
2022-12-03T19:46:20.175Z,109.10
2022-12-03T19:49:24.124Z,102.95
2022-12-03T19:52:27.034Z,109.00
2022-12-03T19:55:30.507Z,104.13
2022-12-03T19:58:33.787Z,99.23
2022-12-03T20:01:40.496Z,93.82
2022-12-03T20:04:43.611Z,83.68
2022-12-03T20:07:46.545Z,85.63
2022-12-03T20:10:50.152Z,84.03
2022-12-03T20:13:55.603Z,77.47
2022-12-03T20:16:58.892Z,71.65
2022-12-03T20:20:02.447Z,62.30
2022-12-03T20:23:05.313Z,66.72
2022-12-03T20:26:17.115Z,64.03
2022-12-03T20:29:22.096Z,63.83
2022-12-03T20:32:25.151Z,60.50
2022-12-03T20:35:28.154Z,61.85
2022-12-03T20:38:32.452Z,67.23
2022-12-03T20:41:36.097Z,58.72
2022-12-03T20:44:39.256Z,63.90
2022-12-03T20:47:42.088Z,65.80
2022-12-03T20:50:45.084Z,67.97
2022-12-03T20:53:48.035Z,79.47
2022-12-03T20:56:51.264Z,66.45
2022-12-03T20:59:56.977Z,75.03
2022-12-03T21:03:00.138Z,66.28
2022-12-03T21:06:03.144Z,60.33
2022-12-03T21:09:07.382Z,52.43
2022-12-03T21:12:10.129Z,52.75
2022-12-03T21:15:12.807Z,55.45
2022-12-03T21:18:17.015Z,50.22
2022-12-03T21:21:21.117Z,57.92
2022-12-03T21:24:23.867Z,51.30
2022-12-03T21:27:26.792Z,57.40
2022-12-03T21:30:29.864Z,64.63
2022-12-03T21:33:33.444Z,73.18
2022-12-03T21:36:36.630Z,71.68
2022-12-03T21:39:40.595Z,62.17
2022-12-03T21:42:43.253Z,63.38
2022-12-03T21:45:46.491Z,70.13
2022-12-03T21:48:50.117Z,54.55
2022-12-03T21:51:52.783Z,93.28
2022-12-03T21:54:56.002Z,187.95
2022-12-03T21:57:59.116Z,161.45
2022-12-03T22:01:15.649Z,153.70
2022-12-03T22:04:18.775Z,90.15
2022-12-03T22:07:21.411Z,95.07
2022-12-03T22:10:24.361Z,94.23
2022-12-03T22:13:27.096Z,81.30
2022-12-03T22:16:30.365Z,74.25
2022-12-03T22:19:32.882Z,54.03
2022-12-03T22:22:35.762Z,59.55
2022-12-03T22:25:38.188Z,57.42
2022-12-03T22:28:45.314Z,58.53
2022-12-03T22:31:47.945Z,52.93
2022-12-03T22:34:50.727Z,51.50
2022-12-03T22:37:53.611Z,52.95
2022-12-03T22:40:56.755Z,56.63
2022-12-03T22:43:59.443Z,54.88
2022-12-03T22:47:02.391Z,53.20
2022-12-03T22:50:05.563Z,53.33
2022-12-03T22:53:08.509Z,58.05
2022-12-03T22:56:11.356Z,53.95
2022-12-03T22:59:14.263Z,58.45
2022-12-03T23:02:17.066Z,54.83
2022-12-03T23:05:19.821Z,55.38
2022-12-03T23:08:22.709Z,52.08
2022-12-03T23:11:26.853Z,62.53
2022-12-03T23:14:29.681Z,67.35
2022-12-03T23:17:32.751Z,62.65
2022-12-03T23:20:45.258Z,65.40
2022-12-03T23:23:48.025Z,61.10
2022-12-03T23:26:50.595Z,57.78
2022-12-03T23:29:54.019Z,55.17
2022-12-03T23:32:57.147Z,56.03
2022-12-03T23:35:59.770Z,52.65
2022-12-03T23:39:02.831Z,54.95
2022-12-03T23:42:05.540Z,51.70
2022-12-03T23:45:08.572Z,57.92
2022-12-03T23:48:11.447Z,55.40
2022-12-03T23:51:17.115Z,57.90
2022-12-03T23:54:20.055Z,52.65
2022-12-03T23:57:22.503Z,56.88
